createdAt,value
2023-05-17T00:01:06.682Z,3.07
2023-05-17T00:03:36.108Z,2.47
2023-05-17T00:06:03.949Z,2.60
2023-05-17T00:08:31.924Z,2.97
2023-05-17T00:10:59.865Z,2.70
2023-05-17T00:13:27.732Z,2.60
2023-05-17T00:15:55.657Z,2.63
2023-05-17T00:18:23.706Z,2.60
2023-05-17T00:20:53.148Z,2.43
2023-05-17T00:23:20.994Z,2.53
2023-05-17T00:25:48.803Z,2.80
2023-05-17T00:28:16.665Z,2.70
2023-05-17T00:30:45.105Z,2.60
2023-05-17T00:33:12.897Z,2.80
2023-05-17T00:35:40.735Z,2.70
2023-05-17T00:38:09.925Z,2.80
2023-05-17T00:40:38.116Z,2.73
2023-05-17T00:43:06.019Z,2.80
2023-05-17T00:45:35.166Z,2.53
2023-05-17T00:48:03.516Z,2.63
2023-05-17T00:50:31.513Z,2.80
2023-05-17T00:52:59.962Z,2.83
2023-05-17T00:55:29.917Z,2.30
2023-05-17T00:57:57.998Z,2.50
2023-05-17T01:00:26.097Z,2.40
2023-05-17T01:02:54.456Z,2.93
2023-05-17T01:05:22.616Z,2.57
2023-05-17T01:07:50.452Z,2.97
2023-05-17T01:10:18.457Z,2.60
2023-05-17T01:13:00.119Z,2.57
2023-05-17T01:15:32.954Z,2.53
2023-05-17T01:18:13.806Z,2.37
2023-05-17T01:20:44.791Z,2.40
2023-05-17T01:23:28.408Z,2.60
2023-05-17T01:26:06.228Z,2.50
2023-05-17T01:28:38.379Z,2.70
2023-05-17T01:31:06.905Z,2.57
2023-05-17T01:33:37.007Z,2.63
2023-05-17T01:36:07.763Z,2.70
2023-05-17T01:38:36.546Z,2.63
2023-05-17T01:41:09.375Z,3.17
2023-05-17T01:43:44.867Z,2.67
2023-05-17T01:46:17.508Z,3.67
2023-05-17T01:48:54.224Z,2.73
2023-05-17T01:51:29.725Z,2.90
2023-05-17T01:54:03.051Z,3.03
2023-05-17T01:56:38.048Z,2.83
2023-05-17T01:59:08.470Z,3.13
2023-05-17T02:01:37.306Z,3.10
2023-05-17T02:04:05.979Z,2.87
2023-05-17T02:06:33.940Z,3.00
2023-05-17T02:09:03.112Z,3.30
2023-05-17T02:11:32.328Z,3.00
2023-05-17T02:14:00.327Z,3.33
2023-05-17T02:16:29.619Z,3.10
2023-05-17T02:18:57.606Z,3.10
2023-05-17T02:21:25.768Z,3.30
2023-05-17T02:23:53.596Z,2.90
2023-05-17T02:26:21.448Z,3.20
2023-05-17T02:28:52.270Z,3.07
2023-05-17T02:31:22.473Z,3.30
2023-05-17T02:33:54.694Z,3.30
2023-05-17T02:36:24.218Z,3.17
2023-05-17T02:38:52.252Z,3.77
2023-05-17T02:41:26.134Z,3.80
2023-05-17T02:43:53.943Z,3.20
2023-05-17T02:46:22.547Z,3.23
2023-05-17T02:48:50.487Z,3.10
2023-05-17T02:51:22.125Z,3.00
2023-05-17T02:53:50.192Z,4.47
2023-05-17T02:56:18.437Z,2.93
2023-05-17T02:58:46.601Z,2.97
2023-05-17T03:01:14.591Z,2.80
2023-05-17T03:03:42.827Z,3.00
2023-05-17T03:06:13.754Z,3.00
2023-05-17T03:08:43.256Z,2.77
2023-05-17T03:11:11.200Z,3.20
2023-05-17T03:13:39.221Z,2.57
2023-05-17T03:16:09.558Z,2.83
2023-05-17T03:18:37.663Z,2.90
2023-05-17T03:21:05.698Z,2.80
2023-05-17T03:23:34.435Z,2.90
2023-05-17T03:26:05.762Z,2.70
2023-05-17T03:28:39.118Z,2.70
2023-05-17T03:31:07.623Z,3.10
2023-05-17T03:33:36.134Z,2.50
2023-05-17T03:36:04.958Z,2.73
2023-05-17T03:38:33.304Z,2.70
2023-05-17T03:41:01.535Z,2.67
2023-05-17T03:43:30.961Z,2.93
2023-05-17T03:46:00.590Z,2.93
2023-05-17T03:48:30.089Z,2.70
2023-05-17T03:50:58.126Z,2.40
2023-05-17T03:53:26.008Z,2.33
2023-05-17T03:55:53.856Z,2.70
2023-05-17T03:58:22.311Z,2.60
2023-05-17T04:00:51.777Z,2.87
2023-05-17T04:03:20.557Z,2.60
2023-05-17T04:05:48.993Z,2.53
2023-05-17T04:08:16.900Z,2.83
2023-05-17T04:10:47.740Z,2.50
2023-05-17T04:13:15.792Z,2.40
2023-05-17T04:15:43.858Z,2.87
2023-05-17T04:18:13.217Z,2.63
2023-05-17T04:20:41.174Z,2.30
2023-05-17T04:23:09.854Z,2.27
2023-05-17T04:25:37.951Z,2.30
2023-05-17T04:28:05.982Z,2.60
2023-05-17T04:30:34.273Z,2.90
2023-05-17T04:33:02.660Z,2.40
2023-05-17T04:35:31.943Z,2.47
2023-05-17T04:38:00.584Z,2.40
2023-05-17T04:40:28.521Z,2.47
2023-05-17T04:42:56.517Z,2.30
2023-05-17T04:45:25.026Z,2.37
2023-05-17T04:47:53.789Z,2.93
2023-05-17T04:50:22.664Z,2.20
2023-05-17T04:52:53.188Z,2.70
2023-05-17T04:55:21.163Z,2.00
2023-05-17T04:57:49.561Z,2.10
2023-05-17T05:00:20.620Z,2.70
2023-05-17T05:02:54.741Z,4.90
2023-05-17T05:05:25.024Z,2.90
2023-05-17T05:07:54.470Z,2.60
2023-05-17T05:10:22.757Z,2.43
2023-05-17T05:12:50.817Z,2.30
2023-05-17T05:15:19.652Z,2.13
2023-05-17T05:17:53.740Z,2.40
2023-05-17T05:20:21.792Z,2.17
2023-05-17T05:22:49.856Z,1.87
2023-05-17T05:25:20.604Z,2.20
2023-05-17T05:27:48.812Z,2.00
2023-05-17T05:30:22.072Z,2.10
2023-05-17T05:32:52.417Z,2.27
2023-05-17T05:35:26.526Z,2.10
2023-05-17T05:37:54.981Z,1.97
2023-05-17T05:40:24.705Z,2.40
2023-05-17T05:42:53.129Z,2.30
2023-05-17T05:45:22.416Z,2.30
2023-05-17T05:47:51.949Z,2.30
2023-05-17T05:50:20.059Z,2.37
2023-05-17T05:52:49.194Z,2.10
2023-05-17T05:55:18.765Z,1.93
2023-05-17T05:57:47.994Z,2.10
2023-05-17T06:00:18.608Z,2.13
2023-05-17T06:02:47.597Z,2.20
2023-05-17T06:05:15.535Z,1.90
2023-05-17T06:07:43.390Z,2.43
2023-05-17T06:10:12.223Z,2.10
2023-05-17T06:12:42.019Z,2.33
2023-05-17T06:15:12.283Z,2.30
2023-05-17T06:17:40.149Z,2.30
2023-05-17T06:20:10.273Z,2.00
2023-05-17T06:22:38.148Z,2.10
2023-05-17T06:25:06.818Z,2.47
2023-05-17T06:27:34.996Z,1.97
2023-05-17T06:30:06.380Z,2.20
2023-05-17T06:32:36.673Z,2.60
2023-05-17T06:35:04.925Z,2.23
2023-05-17T06:37:33.212Z,2.10
2023-05-17T06:40:15.054Z,2.20
2023-05-17T06:42:44.521Z,2.33
2023-05-17T06:45:13.630Z,2.27
2023-05-17T06:47:43.084Z,2.20
2023-05-17T06:50:11.438Z,2.10
2023-05-17T06:52:39.340Z,2.07
2023-05-17T06:55:09.296Z,2.47
2023-05-17T06:57:38.202Z,1.93
2023-05-17T07:00:11.106Z,2.23
2023-05-17T07:02:42.400Z,2.20
2023-05-17T07:05:10.532Z,2.20
2023-05-17T07:07:38.451Z,2.10
2023-05-17T07:10:07.524Z,2.23
2023-05-17T07:12:36.517Z,2.37
2023-05-17T07:15:04.668Z,2.30
2023-05-17T07:17:32.537Z,2.80
2023-05-17T07:20:01.910Z,2.30
2023-05-17T07:22:29.789Z,2.57
2023-05-17T07:24:57.682Z,2.60
2023-05-17T07:27:25.774Z,2.17
2023-05-17T07:29:53.845Z,2.70
2023-05-17T07:32:21.659Z,2.50
2023-05-17T07:34:49.618Z,2.53
2023-05-17T07:37:18.817Z,2.50
2023-05-17T07:39:46.706Z,2.13
2023-05-17T07:42:14.699Z,2.40
2023-05-17T07:44:42.559Z,2.97
2023-05-17T07:47:11.411Z,2.10
2023-05-17T07:49:39.312Z,2.00
2023-05-17T07:52:07.455Z,2.10
2023-05-17T07:54:39.236Z,2.30
2023-05-17T07:57:10.002Z,2.40
2023-05-17T07:59:40.069Z,2.07
2023-05-17T08:02:07.950Z,2.30
2023-05-17T08:04:36.122Z,2.30
2023-05-17T08:07:04.082Z,1.77
2023-05-17T08:09:37.846Z,2.03
2023-05-17T08:12:07.586Z,2.30
2023-05-17T08:14:35.482Z,2.10
2023-05-17T08:17:03.414Z,2.10
2023-05-17T08:19:31.367Z,1.90
2023-05-17T08:21:59.396Z,1.63
2023-05-17T08:24:27.460Z,2.20
2023-05-17T08:26:56.650Z,1.83
2023-05-17T08:29:25.862Z,2.00
2023-05-17T08:31:55.042Z,2.10
2023-05-17T08:34:22.882Z,2.30
2023-05-17T08:36:50.772Z,2.00
2023-05-17T08:39:18.577Z,2.10
2023-05-17T08:41:47.713Z,2.07
2023-05-17T08:44:17.728Z,2.07
2023-05-17T08:46:53.867Z,2.20
2023-05-17T08:49:23.558Z,2.20
2023-05-17T08:51:54.277Z,2.03
2023-05-17T08:54:22.715Z,2.00
2023-05-17T08:56:54.551Z,2.13
2023-05-17T08:59:23.305Z,1.87
2023-05-17T09:01:54.723Z,2.07
2023-05-17T09:04:22.873Z,2.10
2023-05-17T09:06:51.596Z,1.90
2023-05-17T09:09:20.205Z,1.90
2023-05-17T09:11:48.076Z,2.03
2023-05-17T09:14:17.275Z,2.60
2023-05-17T09:16:45.158Z,3.07
2023-05-17T09:19:18.557Z,1.90
2023-05-17T09:21:47.950Z,2.20
2023-05-17T09:24:15.864Z,1.63
2023-05-17T09:26:45.717Z,1.57
2023-05-17T09:29:15.218Z,1.73
2023-05-17T09:31:44.205Z,2.30
2023-05-17T09:34:12.710Z,1.73
2023-05-17T09:36:44.535Z,1.93
2023-05-17T09:39:14.717Z,1.90
2023-05-17T09:41:48.003Z,2.00
2023-05-17T09:44:16.732Z,1.90
2023-05-17T09:46:47.965Z,2.30
2023-05-17T09:49:17.471Z,2.30
2023-05-17T09:51:50.315Z,2.00
2023-05-17T09:54:18.503Z,2.10
2023-05-17T09:56:46.600Z,1.70
2023-05-17T09:59:16.344Z,1.70
2023-05-17T10:01:46.104Z,1.87
2023-05-17T10:04:20.311Z,2.00
2023-05-17T10:06:52.323Z,1.80
2023-05-17T10:09:25.357Z,1.70
2023-05-17T10:11:56.545Z,2.00
2023-05-17T10:14:28.149Z,2.33
2023-05-17T10:16:57.211Z,1.60
2023-05-17T10:19:27.174Z,1.40
2023-05-17T10:22:07.840Z,1.57
2023-05-17T10:24:48.673Z,1.70
2023-05-17T10:27:17.260Z,1.60
2023-05-17T10:29:47.676Z,1.67
2023-05-17T10:32:23.370Z,1.40
2023-05-17T10:35:05.846Z,1.80
2023-05-17T10:37:36.143Z,2.07
2023-05-17T10:40:04.982Z,1.73
2023-05-17T10:42:33.513Z,1.70
2023-05-17T10:45:02.517Z,1.37
2023-05-17T10:47:33.993Z,2.63
2023-05-17T10:50:03.339Z,1.83
2023-05-17T10:52:32.003Z,1.50
2023-05-17T10:55:01.698Z,1.60
2023-05-17T11:00:08.891Z,2.00
2023-05-17T11:02:42.513Z,1.43
2023-05-17T11:05:27.916Z,1.77
2023-05-17T11:08:14.162Z,1.83
2023-05-17T11:11:09.352Z,1.90
2023-05-17T11:13:52.039Z,1.63
2023-05-17T11:16:23.617Z,1.80
2023-05-17T11:18:52.919Z,1.70
2023-05-17T11:21:21.850Z,1.50
2023-05-17T11:23:56.145Z,1.80
2023-05-17T11:26:34.131Z,2.40
2023-05-17T11:29:06.038Z,1.80
2023-05-17T11:31:35.626Z,1.70
2023-05-17T11:34:04.831Z,1.70
2023-05-17T11:36:32.851Z,1.80
2023-05-17T11:39:12.056Z,1.90
2023-05-17T11:41:49.104Z,1.57
2023-05-17T11:44:19.331Z,1.60
2023-05-17T11:46:47.495Z,1.47
2023-05-17T11:49:26.959Z,1.57
2023-05-17T11:52:03.016Z,1.70
2023-05-17T11:54:31.971Z,1.87
2023-05-17T11:57:03.787Z,1.73
2023-05-17T11:59:38.608Z,2.03
2023-05-17T12:02:06.685Z,1.90
2023-05-17T12:04:38.412Z,2.17
2023-05-17T12:07:09.555Z,2.27
2023-05-17T12:09:38.327Z,2.20
2023-05-17T12:12:08.631Z,2.13
2023-05-17T12:14:36.656Z,2.30
2023-05-17T12:17:07.244Z,1.90
2023-05-17T12:19:35.332Z,2.40
2023-05-17T12:22:13.818Z,2.20
2023-05-17T12:24:43.505Z,2.63
2023-05-17T12:27:13.653Z,2.07
2023-05-17T12:29:44.733Z,2.20
2023-05-17T12:32:12.744Z,2.17
2023-05-17T12:34:43.451Z,2.60
2023-05-17T12:37:13.209Z,2.43
2023-05-17T12:39:41.474Z,2.23
2023-05-17T12:42:10.855Z,2.30
2023-05-17T12:44:40.436Z,2.40
2023-05-17T12:47:12.776Z,2.43
2023-05-17T12:49:40.997Z,2.47
2023-05-17T12:52:09.130Z,2.30
2023-05-17T12:54:37.331Z,2.40
2023-05-17T12:57:13.776Z,2.50
2023-05-17T12:59:50.633Z,2.80
2023-05-17T13:02:23.880Z,2.50
2023-05-17T13:05:15.208Z,2.57
2023-05-17T13:07:43.060Z,2.40
2023-05-17T13:10:22.036Z,2.27
2023-05-17T13:12:57.297Z,2.33
2023-05-17T13:15:31.216Z,2.37
2023-05-17T13:18:00.726Z,2.80
2023-05-17T13:20:29.277Z,2.30
2023-05-17T13:22:57.371Z,2.40
2023-05-17T13:25:25.535Z,2.10
2023-05-17T13:27:55.429Z,2.40
2023-05-17T13:30:23.560Z,2.57
2023-05-17T13:32:54.484Z,3.97
2023-05-17T13:35:22.365Z,2.50
2023-05-17T13:37:50.226Z,2.30
2023-05-17T13:40:18.061Z,2.77
2023-05-17T13:42:45.934Z,2.50
2023-05-17T13:45:13.989Z,2.40
2023-05-17T13:47:41.993Z,2.83
2023-05-17T13:50:12.606Z,2.43
2023-05-17T13:52:42.039Z,2.40
2023-05-17T13:55:10.113Z,2.40
2023-05-17T13:57:37.951Z,2.43
2023-05-17T14:00:06.980Z,2.47
2023-05-17T14:02:34.816Z,2.43
2023-05-17T14:05:02.734Z,2.50
2023-05-17T14:07:31.984Z,2.53
2023-05-17T14:10:00.855Z,2.40
2023-05-17T14:12:28.841Z,2.20
2023-05-17T14:14:56.706Z,2.80
2023-05-17T14:17:24.476Z,2.73
2023-05-17T14:19:52.607Z,2.70
2023-05-17T14:22:20.518Z,2.80
2023-05-17T14:24:49.668Z,2.87
2023-05-17T14:27:17.621Z,2.40
2023-05-17T14:29:45.475Z,3.03
2023-05-17T14:32:14.172Z,3.10
2023-05-17T14:34:42.025Z,2.60
2023-05-17T14:37:10.380Z,2.50
2023-05-17T14:39:38.211Z,2.70
2023-05-17T14:42:07.635Z,2.77
2023-05-17T14:44:38.761Z,2.80
2023-05-17T14:47:08.575Z,2.97
2023-05-17T14:49:36.528Z,3.00
2023-05-17T14:52:04.512Z,3.10
2023-05-17T14:54:32.954Z,2.77
2023-05-17T14:57:01.046Z,2.63
2023-05-17T14:59:30.672Z,3.03
2023-05-17T15:01:58.520Z,2.87
2023-05-17T15:04:26.615Z,2.80
2023-05-17T15:06:54.688Z,2.70
2023-05-17T15:09:24.060Z,2.80
2023-05-17T15:11:52.419Z,2.67
2023-05-17T15:14:22.470Z,2.80
2023-05-17T15:16:53.830Z,3.30
2023-05-17T15:19:22.238Z,2.80
2023-05-17T15:21:50.205Z,3.30
2023-05-17T15:24:18.066Z,2.60
2023-05-17T15:26:47.049Z,2.60
2023-05-17T15:29:14.851Z,2.93
2023-05-17T15:31:45.324Z,2.90
2023-05-17T15:34:14.823Z,2.73
2023-05-17T15:36:42.746Z,2.77
2023-05-17T15:39:10.967Z,3.00
2023-05-17T15:41:39.803Z,2.93
2023-05-17T15:44:09.011Z,2.90
2023-05-17T15:46:36.842Z,3.30
2023-05-17T15:49:04.892Z,2.90
2023-05-17T15:51:34.250Z,3.00
2023-05-17T15:54:02.124Z,2.83
2023-05-17T15:56:30.104Z,3.40
2023-05-17T15:58:58.309Z,3.23
2023-05-17T16:01:26.929Z,3.03
2023-05-17T16:03:54.789Z,3.20
2023-05-17T16:06:22.884Z,3.10
2023-05-17T16:08:52.123Z,3.17
2023-05-17T16:11:20.102Z,4.63
2023-05-17T16:13:47.905Z,3.13
2023-05-17T16:16:16.208Z,3.10
2023-05-17T16:18:44.161Z,3.00
2023-05-17T16:21:12.144Z,3.50
2023-05-17T16:23:39.929Z,3.03
2023-05-17T16:26:09.179Z,3.20
2023-05-17T16:28:37.344Z,3.50
2023-05-17T16:31:05.537Z,3.30
2023-05-17T16:33:33.500Z,3.30
2023-05-17T16:36:01.380Z,3.47
2023-05-17T16:38:29.312Z,3.20
2023-05-17T16:40:57.457Z,3.07
2023-05-17T16:43:26.968Z,3.47
2023-05-17T16:45:54.848Z,3.60
2023-05-17T16:48:22.819Z,3.80
2023-05-17T16:50:50.757Z,3.60
2023-05-17T16:53:18.606Z,3.87
2023-05-17T16:55:46.583Z,4.13
2023-05-17T16:58:14.421Z,3.80
2023-05-17T17:00:43.681Z,4.00
2023-05-17T17:03:11.542Z,3.87
2023-05-17T17:05:39.475Z,4.10
2023-05-17T17:08:07.377Z,4.10
2023-05-17T17:10:36.002Z,4.67
2023-05-17T17:13:03.942Z,4.33
2023-05-17T17:15:31.822Z,4.27
2023-05-17T17:18:01.068Z,4.00
2023-05-17T17:20:29.131Z,4.10
2023-05-17T17:22:57.402Z,4.20
2023-05-17T17:25:25.652Z,4.60
2023-05-17T17:27:53.593Z,4.60
2023-05-17T17:30:21.672Z,4.20
2023-05-17T17:32:49.692Z,4.40
2023-05-17T17:35:19.069Z,4.63
2023-05-17T17:37:46.916Z,4.73
2023-05-17T17:40:14.853Z,4.60
2023-05-17T17:42:42.722Z,4.60
2023-05-17T17:45:11.118Z,4.40
2023-05-17T17:47:38.952Z,4.70
2023-05-17T17:50:08.133Z,4.07
2023-05-17T17:52:37.800Z,4.07
2023-05-17T17:55:06.948Z,4.07
2023-05-17T17:57:34.828Z,4.20
2023-05-17T18:00:02.973Z,4.27
2023-05-17T18:02:33.121Z,4.00
2023-05-17T18:05:01.198Z,3.63
2023-05-17T18:07:29.071Z,3.80
2023-05-17T18:09:58.535Z,4.43
2023-05-17T18:12:27.597Z,3.90
2023-05-17T18:14:55.806Z,4.10
2023-05-17T18:17:24.185Z,3.70
2023-05-17T18:19:52.153Z,4.27
2023-05-17T18:22:19.996Z,4.30
2023-05-17T18:24:47.917Z,3.63
2023-05-17T18:27:17.159Z,4.20
2023-05-17T18:29:45.024Z,4.00
2023-05-17T18:32:13.066Z,4.10
2023-05-17T18:34:42.032Z,3.70
2023-05-17T18:37:09.874Z,3.57
2023-05-17T18:39:37.711Z,3.70
2023-05-17T18:42:06.223Z,3.93
2023-05-17T18:44:36.054Z,3.47
2023-05-17T18:47:04.160Z,3.90
2023-05-17T18:49:32.050Z,4.40
2023-05-17T18:52:00.047Z,3.90
2023-05-17T18:54:28.094Z,3.90
2023-05-17T18:56:56.016Z,3.70
2023-05-17T18:59:23.800Z,3.73
2023-05-17T19:01:52.999Z,3.80
2023-05-17T19:04:21.004Z,3.77
2023-05-17T19:06:48.902Z,3.77
2023-05-17T19:09:16.743Z,4.20
2023-05-17T19:11:44.565Z,3.83
2023-05-17T19:14:14.531Z,3.63
2023-05-17T19:16:42.469Z,3.90
2023-05-17T19:19:11.716Z,3.80
2023-05-17T19:21:39.783Z,3.50
2023-05-17T19:24:08.389Z,3.77
2023-05-17T19:26:36.320Z,3.63
2023-05-17T19:29:04.143Z,3.60
2023-05-17T19:31:32.124Z,3.80
2023-05-17T19:34:02.766Z,4.07
2023-05-17T19:36:32.156Z,3.70
2023-05-17T19:39:00.241Z,3.80
2023-05-17T19:41:28.356Z,3.83
2023-05-17T19:43:56.238Z,3.47
2023-05-17T19:46:24.185Z,4.10
2023-05-17T19:48:52.706Z,4.07
2023-05-17T19:51:20.563Z,4.17
2023-05-17T19:53:53.309Z,3.57
2023-05-17T19:56:22.608Z,3.97
2023-05-17T19:58:50.431Z,3.63
2023-05-17T20:01:18.268Z,3.80
2023-05-17T20:03:46.345Z,3.90
2023-05-17T20:06:15.037Z,4.07
2023-05-17T20:08:43.430Z,4.00
2023-05-17T20:11:12.727Z,4.13
2023-05-17T20:13:40.765Z,3.77
2023-05-17T20:16:12.970Z,3.80
2023-05-17T20:18:43.306Z,3.60
2023-05-17T20:21:12.659Z,3.77
2023-05-17T20:23:41.492Z,3.83
2023-05-17T20:26:16.021Z,3.70
2023-05-17T20:28:46.001Z,4.10
2023-05-17T20:31:14.166Z,3.77
2023-05-17T20:33:44.135Z,4.27
2023-05-17T20:36:14.192Z,4.30
2023-05-17T20:38:42.333Z,3.90
2023-05-17T20:41:11.040Z,4.17
2023-05-17T20:43:38.930Z,4.40
2023-05-17T20:46:09.464Z,4.27
2023-05-17T20:48:38.891Z,4.20
2023-05-17T20:51:06.755Z,4.10
2023-05-17T20:53:34.605Z,4.30
2023-05-17T20:56:02.678Z,4.50
2023-05-17T20:58:30.546Z,4.50
2023-05-17T21:00:58.748Z,4.40
2023-05-17T21:03:28.828Z,4.03
2023-05-17T21:05:56.866Z,4.57
2023-05-17T21:08:24.720Z,4.10
2023-05-17T21:10:52.654Z,4.40
2023-05-17T21:13:21.685Z,4.37
2023-05-17T21:15:49.527Z,4.30
2023-05-17T21:18:17.461Z,4.07
2023-05-17T21:20:46.723Z,4.40
2023-05-17T21:23:14.511Z,4.10
2023-05-17T21:25:42.320Z,4.67
2023-05-17T21:28:10.108Z,4.90
2023-05-17T21:30:37.931Z,4.33
2023-05-17T21:33:06.142Z,4.27
2023-05-17T21:35:34.018Z,4.60
2023-05-17T21:38:03.236Z,4.07
2023-05-17T21:40:31.372Z,4.73
2023-05-17T21:42:59.533Z,4.40
2023-05-17T21:45:27.380Z,5.00
2023-05-17T21:47:55.285Z,4.27
2023-05-17T21:50:23.207Z,4.43
2023-05-17T21:52:51.055Z,4.20
2023-05-17T21:55:20.226Z,4.50
2023-05-17T21:57:48.033Z,4.47
2023-05-17T22:00:16.622Z,4.37
2023-05-17T22:02:45.129Z,4.40
2023-05-17T22:05:13.840Z,4.60
2023-05-17T22:07:41.761Z,4.60
2023-05-17T22:10:10.306Z,4.57
2023-05-17T22:12:39.579Z,4.57
2023-05-17T22:15:08.707Z,4.30
2023-05-17T22:17:47.964Z,4.53
2023-05-17T22:20:23.364Z,4.40
2023-05-17T22:22:51.293Z,4.23
2023-05-17T22:25:19.300Z,4.37
2023-05-17T22:27:48.469Z,4.03
2023-05-17T22:30:16.301Z,4.50
2023-05-17T22:32:44.434Z,4.20
2023-05-17T22:35:12.322Z,4.43
2023-05-17T22:37:42.335Z,4.60
2023-05-17T22:40:11.039Z,4.60
2023-05-17T22:42:38.988Z,4.87
2023-05-17T22:45:08.970Z,4.67
2023-05-17T22:47:36.817Z,4.73
2023-05-17T22:50:05.189Z,5.00
2023-05-17T22:52:33.101Z,4.43
2023-05-17T22:55:01.431Z,4.70
2023-05-17T22:57:29.270Z,3.90
2023-05-17T22:59:57.151Z,4.03
2023-05-17T23:02:26.467Z,4.20
2023-05-17T23:04:55.706Z,4.87
2023-05-17T23:07:23.575Z,3.90
2023-05-17T23:09:51.400Z,4.17
2023-05-17T23:12:19.670Z,4.53
2023-05-17T23:14:47.497Z,4.57
2023-05-17T23:17:15.779Z,5.00
2023-05-17T23:19:44.983Z,4.40
2023-05-17T23:22:12.811Z,4.20
2023-05-17T23:24:40.632Z,4.67
2023-05-17T23:27:09.888Z,4.50
2023-05-17T23:29:37.954Z,4.37
2023-05-17T23:32:06.280Z,4.17
2023-05-17T23:34:34.542Z,4.23
2023-05-17T23:37:03.683Z,4.10
2023-05-17T23:39:31.520Z,4.00
2023-05-17T23:41:59.304Z,4.20
2023-05-17T23:44:27.164Z,4.20
2023-05-17T23:46:56.270Z,4.03
2023-05-17T23:49:24.131Z,4.30
2023-05-17T23:51:52.101Z,4.30
2023-05-17T23:54:22.203Z,4.07
2023-05-17T23:56:50.026Z,4.13
2023-05-17T23:59:17.879Z,4.13
